Time;durP1;ratioP1;P1;durP2;ratioP2;P2;SDS_P1;SDS_P2;PMS_P1;PMS_P2;Temp;Humidity;BMP_temperature;BMP_pressure;BME280_temperature;BME280_humidity;BME280_pressure;Samples;Min_cycle;Max_cycle;Signal;HPM_P1;HPM_P2
2021/04/11 00:00:38;;;;;;;6.30;3.97;;;9.50;57.70;;;8.81;40.10;94574.69;5070981;28;20227;-84
2021/04/11 00:03:11;;;;;;;7.60;4.15;;;9.50;58.00;;;8.80;39.85;94577.47;5037979;28;20246;-84
2021/04/11 00:05:40;;;;;;;10.35;4.45;;;9.50;58.00;;;8.77;40.38;94580.47;5038073;28;20204;-84
2021/04/11 00:08:10;;;;;;;7.75;4.32;;;9.40;58.00;;;8.76;40.29;94578.84;5054283;28;20219;-84
2021/04/11 00:10:40;;;;;;;9.25;3.80;;;9.50;58.10;;;8.74;40.10;94576.44;5037307;28;20704;-84
2021/04/11 00:13:17;;;;;;;10.50;4.38;;;9.40;59.60;;;8.71;40.45;94568.97;5037909;28;20207;-84
2021/04/11 00:15:44;;;;;;;6.88;4.13;;;9.30;58.40;;;8.71;40.32;94574.19;5054277;28;20180;-84
2021/04/11 00:18:10;;;;;;;5.32;3.40;;;9.40;58.20;;;8.70;40.31;94562.09;5070432;28;20591;-84
2021/04/11 00:20:37;;;;;;;4.55;3.75;;;9.30;58.30;;;8.67;40.21;94567.72;5050697;28;20259;-83
2021/04/11 00:23:05;;;;;;;5.55;4.03;;;9.30;58.20;;;8.65;40.26;94561.88;5047877;28;20216;-83
2021/04/11 00:25:37;;;;;;;6.88;3.95;;;9.30;58.40;;;8.64;40.67;94557.63;5052446;28;20638;-83
2021/04/11 00:28:05;;;;;;;6.32;3.60;;;9.30;58.80;;;8.62;40.34;94552.59;5028853;28;20240;-84
2021/04/11 00:30:32;;;;;;;6.82;3.40;;;9.30;58.50;;;8.61;40.34;94556.19;5035850;28;20250;-84
2021/04/11 00:33:01;;;;;;;4.32;3.72;;;9.30;58.60;;;8.58;40.42;94543.53;5014962;28;20733;-84
2021/04/11 00:35:29;;;;;;;7.47;3.65;;;9.20;58.60;;;8.58;40.10;94547.94;5033475;28;20197;-83
2021/04/11 00:37:56;;;;;;;5.35;3.25;;;9.20;58.40;;;8.57;40.84;94541.06;5020659;28;20701;-83
2021/04/11 00:40:35;;;;;;;3.80;3.40;;;9.20;58.40;;;8.56;40.37;94539.50;5046695;28;20262;-83
2021/04/11 00:43:13;;;;;;;3.92;3.30;;;9.20;59.00;;;8.47;40.47;94531.78;5030287;28;20761;-84
2021/04/11 00:46:04;;;;;;;5.25;3.15;;;9.20;59.30;;;8.51;40.85;94539.22;5062644;28;20212;-83
2021/04/11 00:48:33;;;;;;;5.47;3.22;;;9.20;59.00;;;8.48;40.71;94540.41;5045393;28;20247;-84
2021/04/11 00:51:15;;;;;;;5.18;3.30;;;9.10;58.60;;;8.43;40.70;94537.53;5045355;28;20262;-84
2021/04/11 00:53:43;;;;;;;4.85;3.30;;;9.10;59.50;;;8.41;40.56;94535.09;5062701;28;20224;-84
2021/04/11 00:56:13;;;;;;;3.78;3.10;;;9.10;58.60;;;8.38;41.03;94538.06;5062136;28;20242;-84
2021/04/11 00:58:41;;;;;;;5.78;3.40;;;9.10;58.90;;;8.34;40.87;94535.03;5029731;28;20215;-83
2021/04/11 01:01:08;;;;;;;5.28;3.40;;;9.00;58.70;;;8.26;40.48;94531.75;5045859;28;20196;-83
2021/04/11 01:03:38;;;;;;;10.05;4.15;;;9.00;58.60;;;8.25;40.80;94530.13;5042690;28;20200;-84
2021/04/11 01:06:11;;;;;;;8.93;4.05;;;8.90;58.80;;;8.18;41.04;94532.69;5027900;28;20220;-83
2021/04/11 01:08:39;;;;;;;8.38;4.30;;;8.90;58.90;;;8.15;40.91;94533.03;5025324;28;20203;-83
2021/04/11 01:11:21;;;;;;;9.93;5.22;;;9.00;58.80;;;8.09;40.95;94526.78;5052666;28;20221;-84
2021/04/11 01:13:53;;;;;;;10.93;4.50;;;9.00;59.70;;;8.04;40.89;94533.53;4998767;28;20220;-84
2021/04/11 01:16:21;;;;;;;10.75;5.30;;;8.80;59.10;;;7.99;40.87;94529.66;5032650;28;20193;-85
2021/04/11 01:18:50;;;;;;;9.57;4.70;;;8.70;58.80;;;7.94;40.90;94534.63;5031773;28;20201;-84
2021/04/11 01:21:40;;;;;;;7.22;3.97;;;8.70;58.80;;;7.89;41.16;94531.78;5032175;28;20199;-84
2021/04/11 01:24:22;;;;;;;5.25;3.40;;;8.60;59.90;;;7.84;41.28;94523.69;5028580;28;20286;-83
2021/04/11 01:26:59;;;;;;;3.97;3.20;;;8.60;60.00;;;7.79;41.19;94524.25;5012244;28;20652;-83
2021/04/11 01:29:27;;;;;;;4.57;3.58;;;8.70;59.10;;;7.75;41.08;94519.56;5036984;28;20206;-83
2021/04/11 01:31:57;;;;;;;7.10;3.88;;;8.50;59.10;;;7.70;41.53;94514.88;5029652;28;20327;-83
2021/04/11 01:34:25;;;;;;;5.70;3.63;;;8.50;59.30;;;7.63;42.04;94509.59;5033370;28;20196;-84
2021/04/11 01:36:54;;;;;;;8.50;4.55;;;8.40;59.50;;;7.63;42.17;94520.03;5032453;28;20219;-83
2021/04/11 01:39:31;;;;;;;7.25;4.07;;;8.40;59.70;;;7.58;42.33;94522.41;5027187;28;20204;-84
2021/04/11 01:42:01;;;;;;;4.53;3.53;;;8.40;60.20;;;7.52;42.29;94510.09;5013556;28;20243;-83
2021/04/11 01:44:36;;;;;;;6.18;3.53;;;8.40;60.10;;;7.51;41.88;94511.88;5048223;28;20204;-84
2021/04/11 02:01:52;;;;;;;6.03;4.38;;;8.00;60.20;;;6.94;43.02;94508.13;5033939;28;20227;-84
2021/04/11 02:04:20;;;;;;;6.05;4.25;;;7.90;60.00;;;6.93;43.17;94503.09;5044150;28;20234;-84
2021/04/11 02:06:52;;;;;;;6.63;4.03;;;7.90;60.40;;;6.93;42.96;94506.50;5034954;28;20306;-84
2021/04/11 02:09:38;;;;;;;6.90;3.97;;;7.90;60.60;;;6.91;43.23;94500.66;5054244;28;20287;-84
2021/04/11 02:12:25;;;;;;;5.72;3.90;;;7.80;60.70;;;6.85;42.99;94499.56;5043784;28;20236;-84
2021/04/11 02:14:59;;;;;;;6.28;3.78;;;7.80;60.40;;;6.88;42.79;94507.06;5033175;28;20193;-84
2021/04/11 02:17:26;;;;;;;6.63;4.40;;;7.70;60.30;;;6.84;42.72;94497.16;5032056;28;20274;-84
2021/04/11 02:19:53;;;;;;;5.65;4.47;;;7.60;60.30;;;6.82;42.91;94491.31;5015686;28;20196;-84
2021/04/11 02:22:29;;;;;;;6.13;3.75;;;7.60;60.50;;;6.80;43.10;94483.66;5035219;28;20226;-84
2021/04/11 02:25:06;;;;;;;7.22;3.95;;;7.60;60.70;;;6.79;42.80;94478.66;5020384;28;20203;-84
2021/04/11 02:27:34;;;;;;;5.57;4.30;;;7.50;60.60;;;6.78;42.97;94474.41;5035674;28;20224;-84
2021/04/11 02:30:06;;;;;;;6.00;3.83;;;7.50;60.60;;;6.73;42.83;94464.53;5034807;28;20728;-84
2021/04/11 02:32:34;;;;;;;4.50;3.90;;;7.50;61.00;;;6.75;42.70;94469.53;5034805;28;20330;-84
2021/04/11 02:35:03;;;;;;;5.90;3.90;;;7.50;60.60;;;6.71;42.65;94469.91;5051887;28;20214;-84
2021/04/11 02:37:34;;;;;;;5.88;4.00;;;7.50;60.70;;;6.69;42.68;94471.09;5035555;28;20220;-84
2021/04/11 02:40:07;;;;;;;8.40;4.22;;;7.50;60.80;;;6.69;42.62;94476.31;5033092;28;20267;-84
2021/04/11 02:42:35;;;;;;;7.20;4.38;;;7.40;60.90;;;6.66;43.07;94471.44;5052163;28;20224;-84
2021/04/11 02:45:36;;;;;;;8.38;4.22;;;7.40;60.80;;;6.65;42.71;94472.41;5018846;28;20208;-84
2021/04/11 02:48:08;;;;;;;5.13;4.10;;;7.40;61.30;;;6.62;42.90;94459.75;5017923;28;20219;-84
2021/04/11 02:50:44;;;;;;;5.97;3.90;;;7.40;60.90;;;6.62;43.12;94462.38;5012957;28;20200;-85
2021/04/11 02:53:23;;;;;;;5.38;3.75;;;7.40;60.80;;;6.60;43.35;94459.13;4997903;28;20225;-84
2021/04/11 02:55:54;;;;;;;5.32;3.80;;;7.40;61.20;;;6.62;43.31;94465.75;5000527;28;20283;-83
2021/04/11 02:58:23;;;;;;;5.10;4.00;;;7.30;61.00;;;6.61;43.15;94458.94;4995180;28;20837;-84
2021/04/11 03:01:05;;;;;;;6.13;4.10;;;7.30;60.90;;;6.61;43.33;94466.75;4978374;28;20205;-83
2021/04/11 03:03:33;;;;;;;5.50;3.92;;;7.30;61.50;;;6.61;43.03;94469.34;4994541;28;20201;-84
2021/04/11 03:06:07;;;;;;;6.25;3.75;;;7.30;61.00;;;6.60;42.96;94464.31;4972493;28;20790;-84
2021/04/11 03:08:36;;;;;;;5.07;3.90;;;7.30;61.30;;;6.57;43.06;94458.47;4997534;28;20238;-84
2021/04/11 03:11:33;;;;;;;5.80;4.25;;;7.30;61.40;;;6.51;43.49;94453.97;4982120;28;20224;-84
2021/04/11 03:14:02;;;;;;;4.63;3.65;;;7.30;61.70;;;6.54;43.37;94466.66;4997380;28;20291;-84
2021/04/11 03:16:35;;;;;;;5.60;3.70;;;7.30;61.20;;;6.51;42.94;94466.22;4998435;28;20315;-84
2021/04/11 03:19:05;;;;;;;6.38;3.97;;;7.20;61.20;;;6.51;43.29;94472.22;5016442;28;20222;-84
2021/04/11 03:21:35;;;;;;;5.45;4.00;;;7.20;61.20;;;6.48;43.36;94469.97;5038541;28;20211;-84
2021/04/11 03:24:04;;;;;;;5.38;3.60;;;7.30;61.20;;;6.47;43.38;94477.94;5037909;28;20286;-83
2021/04/11 03:27:05;;;;;;;5.93;4.20;;;7.20;61.30;;;6.40;43.34;94485.69;5055620;28;20222;-84
2021/04/11 03:29:43;;;;;;;6.78;4.10;;;7.20;61.70;;;6.38;43.04;94492.84;5039178;28;20188;-84
2021/04/11 03:32:27;;;;;;;5.43;3.30;;;7.20;61.40;;;6.33;43.15;94487.38;5038167;28;20281;-85
2021/04/11 03:35:00;;;;;;;5.13;3.97;;;7.10;61.70;;;6.27;43.21;94485.47;5054691;28;20200;-84
2021/04/11 03:37:30;;;;;;;7.05;3.90;;;7.10;61.20;;;6.25;43.47;94490.84;5038492;28;20216;-84
2021/04/11 03:39:59;;;;;;;5.20;3.55;;;7.20;61.30;;;6.19;43.39;94488.91;5055119;28;20249;-84
2021/04/11 03:42:35;;;;;;;3.75;3.30;;;7.00;61.00;;;6.16;43.11;94486.69;5038956;28;20266;-84
2021/04/11 03:45:02;;;;;;;5.78;3.70;;;7.00;61.30;;;6.11;43.21;94492.41;5024467;28;20631;-82
2021/04/11 03:47:43;;;;;;;4.88;3.60;;;6.90;61.00;;;6.05;43.58;94485.31;5035072;28;20217;-83
2021/04/11 03:50:40;;;;;;;6.22;3.35;;;6.90;61.80;;;5.96;43.37;94484.53;5034731;28;20188;-84
2021/04/11 03:53:18;;;;;;;5.07;3.45;;;6.80;61.70;;;5.92;43.16;94483.25;5031005;28;20232;-84
2021/04/11 03:55:59;;;;;;;5.82;3.83;;;6.80;61.30;;;5.87;43.59;94488.97;5019037;28;20250;-85
2021/04/11 03:58:34;;;;;;;4.13;3.60;;;6.80;61.30;;;5.84;44.07;94488.50;5034772;28;20224;-83
2021/04/11 04:01:18;;;;;;;3.72;3.03;;;6.70;61.40;;;5.78;43.50;94479.59;5033965;28;20197;-85
2021/04/11 04:03:50;;;;;;;5.22;3.72;;;6.70;61.50;;;5.75;43.47;94474.75;5034422;28;20193;-83
2021/04/11 04:06:30;;;;;;;5.47;3.47;;;6.60;61.30;;;5.73;43.48;94471.50;5034372;28;20201;-84
2021/04/11 04:08:58;;;;;;;4.55;3.70;;;6.60;61.80;;;5.70;43.56;94479.63;5037512;28;20215;-84
2021/04/11 04:12:11;;;;;;;4.95;3.45;;;6.50;61.30;;;5.63;43.63;94476.94;5037876;28;20232;-84
2021/04/11 04:15:14;;;;;;;8.38;3.60;;;6.50;62.20;;;5.59;43.50;94476.47;5070826;28;20194;-83
2021/04/11 04:18:01;;;;;;;4.45;3.50;;;6.50;62.10;;;5.58;43.45;94472.22;5032566;28;20250;-84
2021/04/11 04:21:00;;;;;;;6.05;4.18;;;6.50;61.30;;;5.55;43.86;94456.16;5047766;28;20196;-84
2021/04/11 04:24:04;;;;;;;18.10;8.85;;;6.40;61.80;;;5.54;43.97;94465.78;5034806;28;20222;-86
2021/04/11 04:26:46;;;;;;;12.30;7.70;;;6.40;62.20;;;5.53;43.58;94464.16;5033582;28;20734;-85
2021/04/11 04:29:39;;;;;;;10.90;6.40;;;6.40;61.50;;;5.52;43.84;94459.91;5018033;28;20200;-84
2021/04/11 04:32:58;;;;;;;8.27;5.38;;;6.30;62.20;;;5.51;44.04;94455.69;5017953;28;20671;-84
2021/04/11 04:35:47;;;;;;;45.17;19.45;;;6.30;62.30;;;5.50;44.13;94450.66;5026901;28;20208;-84
2021/04/11 04:38:43;;;;;;;20.63;11.02;;;6.30;62.20;;;5.53;44.09;94450.31;5034284;28;20270;-84
2021/04/11 04:41:47;;;;;;;10.98;6.50;;;6.40;62.40;;;5.51;44.36;94442.69;5053321;28;20662;-85
2021/04/11 04:45:08;;;;;;;9.60;6.50;;;6.30;62.40;;;5.53;44.36;94455.50;5054560;28;20200;-85
2021/04/11 04:48:04;;;;;;;20.00;12.40;;;6.30;62.50;;;5.53;44.30;94456.34;5070459;28;20227;-84
2021/04/11 04:50:46;;;;;;;20.88;14.25;;;6.30;62.50;;;5.51;44.10;94452.28;5045905;28;20204;-86
2021/04/11 04:53:24;;;;;;;13.82;10.07;;;6.30;62.50;;;5.57;44.28;94462.00;5018117;28;20224;-85
2021/04/11 04:55:58;;;;;;;11.07;8.38;;;6.30;62.30;;;5.57;44.23;94465.41;5017397;28;20223;-85
2021/04/11 04:58:35;;;;;;;9.65;6.53;;;6.30;62.30;;;5.59;44.38;94466.06;5019812;28;20243;-85
2021/04/11 05:01:17;;;;;;;12.85;8.93;;;6.30;62.30;;;5.61;44.42;94461.50;5017913;28;20217;-85
2021/04/11 05:03:56;;;;;;;12.43;8.52;;;6.30;62.70;;;5.63;44.20;94457.88;5017411;28;20296;-85
2021/04/11 05:06:39;;;;;;;13.20;10.18;;;6.30;62.30;;;5.67;44.44;94461.78;5018269;28;20228;-85
2021/04/11 05:09:50;;;;;;;11.82;8.15;;;6.30;62.60;;;5.68;44.52;94455.59;5019079;28;20275;-85
2021/04/11 05:12:48;;;;;;;9.45;7.32;;;6.40;63.10;;;5.74;44.58;94460.13;5020103;28;20323;-85
2021/04/11 05:15:24;;;;;;;7.53;6.10;;;6.40;62.60;;;5.80;44.60;94469.84;5017059;28;20197;-84
2021/04/11 05:18:45;;;;;;;7.05;5.32;;;6.40;62.70;;;5.88;44.64;94472.38;5028681;28;20256;-84
2021/04/11 05:21:30;;;;;;;6.22;4.68;;;6.50;63.20;;;5.97;44.86;94475.72;5052751;28;20674;-85
2021/04/11 05:24:10;;;;;;;6.15;4.05;;;6.50;62.80;;;6.05;44.47;94469.69;5036569;28;20198;-86
2021/04/11 05:27:11;;;;;;;6.05;4.20;;;6.50;63.30;;;6.16;44.70;94465.84;5037353;28;20234;-85
2021/04/11 05:30:29;;;;;;;5.50;3.70;;;6.60;63.10;;;6.25;44.71;94472.63;5015113;28;20685;-84
2021/04/11 05:32:57;;;;;;;7.40;3.85;;;6.70;63.50;;;6.34;44.45;94470.75;5049399;28;20239;-85
2021/04/11 05:35:27;;;;;;;4.30;3.78;;;6.80;62.90;;;6.39;44.89;94468.44;5033143;28;20888;-85
2021/04/11 05:38:16;;;;;;;4.97;3.75;;;6.90;63.20;;;6.52;44.61;94478.25;5045811;28;20212;-85
2021/04/11 05:40:53;;;;;;;6.68;4.38;;;6.90;63.60;;;6.59;44.84;94473.13;5033026;28;20192;-85
2021/04/11 05:43:36;;;;;;;5.70;4.20;;;7.00;63.30;;;6.66;44.51;94489.66;5032003;28;20219;-85
2021/04/11 05:46:15;;;;;;;5.25;4.00;;;7.00;63.50;;;6.69;44.92;94469.28;5032781;28;20216;-85
2021/04/11 05:49:02;;;;;;;7.07;3.58;;;7.10;63.60;;;6.81;44.73;94487.91;5049642;28;20288;-85
2021/04/11 05:51:47;;;;;;;4.90;3.40;;;7.20;63.10;;;6.89;44.97;94482.56;5000310;28;20235;-85
2021/04/11 05:54:26;;;;;;;4.93;3.80;;;7.30;63.70;;;6.99;44.87;94486.72;5016562;28;20200;-85
2021/04/11 05:57:02;;;;;;;5.40;3.58;;;7.30;63.20;;;7.08;45.07;94488.25;5043508;28;20231;-84
2021/04/11 05:59:39;;;;;;;8.30;3.72;;;7.40;63.60;;;7.20;44.80;94494.63;5025500;28;20215;-85
2021/04/11 06:02:38;;;;;;;5.15;3.67;;;7.50;63.90;;;7.30;44.77;94496.97;5031045;28;20226;-83
2021/04/11 06:05:29;;;;;;;10.32;3.70;;;7.60;63.80;;;7.42;44.83;94496.50;5047617;28;20187;-85
2021/04/11 06:08:00;;;;;;;4.70;3.47;;;7.70;63.70;;;7.55;45.11;94501.88;5048859;28;20226;-85
2021/04/11 06:11:20;;;;;;;4.40;3.70;;;7.80;63.40;;;7.65;44.67;94512.84;5031954;28;20196;-84
2021/04/11 06:13:56;;;;;;;9.00;4.25;;;7.90;64.00;;;7.77;44.84;94512.38;5009895;28;20200;-85
2021/04/11 06:16:26;;;;;;;4.65;3.60;;;8.00;63.40;;;7.89;45.04;94504.88;5021466;28;20200;-84
2021/04/11 06:18:54;;;;;;;4.32;3.50;;;8.10;63.50;;;7.99;44.86;94505.34;5015646;28;20660;-85
2021/04/11 06:21:44;;;;;;;6.18;3.50;;;8.20;63.60;;;8.17;45.19;94497.91;5032172;28;20215;-85
2021/04/11 06:24:24;;;;;;;5.30;3.70;;;8.30;64.20;;;8.33;45.09;94490.81;5032230;28;20199;-85
2021/04/11 06:27:23;;;;;;;6.13;3.58;;;8.40;64.30;;;8.47;44.90;94484.72;5032104;28;20785;-84
2021/04/11 06:30:02;;;;;;;5.38;3.85;;;8.50;64.30;;;8.64;44.82;94489.66;5034740;28;20192;-85
2021/04/11 06:32:48;;;;;;;8.27;3.78;;;8.70;63.90;;;8.77;45.04;94481.91;5028332;28;20224;-86
2021/04/11 06:35:24;;;;;;;4.88;3.92;;;8.80;64.20;;;8.93;45.39;94483.41;5032130;28;20604;-84
2021/04/11 06:37:58;;;;;;;4.90;3.78;;;8.90;64.20;;;9.06;44.99;94485.31;5031281;28;20317;-85
2021/04/11 06:40:40;;;;;;;5.32;4.20;;;9.10;64.30;;;9.23;45.31;94480.56;5037007;28;20262;-85
2021/04/11 06:43:33;;;;;;;7.30;4.00;;;9.20;64.60;;;9.39;45.30;94482.06;5046806;28;20238;-85
2021/04/11 06:46:30;;;;;;;7.10;4.18;;;9.40;64.30;;;9.57;45.29;94483.31;5029151;28;20216;-85
2021/04/11 06:49:23;;;;;;;7.43;4.70;;;9.50;64.60;;;9.75;45.43;94480.97;5030242;28;20247;-84
2021/04/11 06:52:31;;;;;;;5.93;4.00;;;9.70;64.80;;;9.90;45.36;94477.41;5015347;28;20286;-83
2021/04/11 06:55:32;;;;;;;7.78;4.90;;;9.80;64.60;;;10.05;45.84;94474.59;5026917;28;20204;-85
2021/04/11 06:58:16;;;;;;;14.63;5.45;;;10.00;63.40;;;10.18;45.58;94476.41;5019680;28;20242;-85
2021/04/11 07:01:02;;;;;;;4.80;4.25;;;10.20;63.40;;;10.27;45.15;94477.06;5019643;28;20201;-85
2021/04/11 07:03:54;;;;;;;5.38;3.88;;;10.30;63.20;;;10.36;45.75;94470.59;5035446;28;20227;-86
2021/04/11 07:07:17;;;;;;;5.43;3.78;;;10.40;63.40;;;10.48;45.44;94471.63;5020778;28;20200;-84
2021/04/11 07:10:27;;;;;;;6.45;3.78;;;10.50;62.90;;;10.57;45.43;94467.81;5055378;28;20207;-84
2021/04/11 07:13:34;;;;;;;5.65;3.67;;;10.60;63.20;;;10.68;45.56;94469.00;5025348;28;20686;-84
2021/04/11 07:16:38;;;;;;;5.57;3.67;;;10.80;63.00;;;10.76;45.24;94472.44;5053268;28;20192;-84
2021/04/11 07:19:27;;;;;;;4.50;3.58;;;10.90;62.80;;;10.82;45.11;94469.00;5038704;28;20214;-84
2021/04/11 07:22:19;;;;;;;8.38;3.50;;;10.90;63.00;;;10.89;45.28;94469.78;5035880;28;20227;-85
2021/04/11 07:24:59;;;;;;;6.95;3.95;;;11.00;63.00;;;10.97;45.48;94476.63;5050791;28;20225;-85
2021/04/11 07:27:40;;;;;;;4.82;3.83;;;11.10;63.10;;;11.06;45.32;94472.78;5035182;28;20216;-84
2021/04/11 07:30:31;;;;;;;6.53;3.83;;;11.10;62.90;;;11.19;45.54;94474.56;5035016;28;20254;-84
2021/04/11 07:33:45;;;;;;;5.53;3.70;;;11.20;63.20;;;11.29;45.20;94477.56;5035017;28;20274;-83
2021/04/11 07:36:28;;;;;;;4.55;3.58;;;11.30;63.10;;;11.47;45.12;94492.63;5034901;28;20239;-84
2021/04/11 07:39:24;;;;;;;5.78;3.63;;;11.40;63.20;;;11.62;45.04;94495.03;5035623;28;20386;-85
2021/04/11 07:42:34;;;;;;;4.88;3.63;;;11.60;63.10;;;11.80;44.90;94494.34;5018932;28;20219;-84
2021/04/11 07:45:43;;;;;;;5.88;3.63;;;11.70;63.10;;;11.99;44.99;94495.28;5035125;28;20195;-83
2021/04/11 07:48:49;;;;;;;12.70;4.18;;;11.80;63.10;;;12.18;44.71;94500.63;5034827;28;20222;-84
2021/04/11 07:51:33;;;;;;;10.10;3.85;;;12.00;63.20;;;12.32;44.79;94493.47;5035618;28;20204;-84
2021/04/11 07:54:21;;;;;;;8.73;4.15;;;12.20;63.10;;;12.51;44.73;94496.16;5034587;28;20658;-84
2021/04/11 07:57:43;;;;;;;10.13;4.45;;;12.30;63.10;;;12.68;44.16;94502.50;5034834;28;20247;-83
2021/04/11 08:00:53;;;;;;;6.57;3.88;;;12.40;62.80;;;12.84;44.42;94493.28;5050994;28;20200;-85
2021/04/11 08:03:52;;;;;;;7.25;4.35;;;12.60;62.80;;;12.97;44.27;94494.97;5027928;28;20235;-84
2021/04/11 08:07:04;;;;;;;7.68;4.07;;;12.80;62.70;;;13.09;44.22;94490.59;5033165;28;20638;-84
2021/04/11 08:10:12;;;;;;;5.22;3.72;;;12.90;62.70;;;13.23;44.02;94482.56;5017984;28;20269;-84
2021/04/11 08:13:05;;;;;;;9.45;4.47;;;13.00;62.50;;;13.36;43.85;94489.53;5033947;28;20223;-84
2021/04/11 08:16:12;;;;;;;6.85;3.88;;;13.20;62.50;;;13.47;43.67;94483.56;5034391;28;20185;-85
2021/04/11 08:19:17;;;;;;;7.72;3.63;;;13.30;62.30;;;13.52;43.71;94491.59;5034266;28;20291;-84
2021/04/11 08:21:51;;;;;;;6.45;3.45;;;13.40;62.30;;;13.59;43.56;94491.53;5040740;28;20294;-84
2021/04/11 08:24:49;;;;;;;3.90;3.33;;;13.50;62.20;;;13.64;43.53;94493.50;5037542;28;20184;-84
2021/04/11 08:28:23;;;;;;;5.63;4.05;;;13.50;62.00;;;13.65;43.37;94490.66;5052295;28;20223;-85
2021/04/11 08:31:08;;;;;;;5.22;3.60;;;13.60;61.90;;;13.74;43.40;94497.25;4996047;28;20208;-84
2021/04/11 08:34:03;;;;;;;6.78;3.85;;;13.70;62.10;;;13.89;43.37;94501.28;5037236;28;20215;-84
2021/04/11 08:37:06;;;;;;;5.05;3.47;;;13.70;61.90;;;14.03;43.31;94491.41;5052527;28;20207;-83
2021/04/11 08:39:59;;;;;;;8.75;3.70;;;13.80;62.20;;;14.30;43.43;94499.72;5051612;28;20194;-84
2021/04/11 08:43:22;;;;;;;9.30;3.88;;;14.00;62.30;;;14.56;43.38;94500.34;5052821;28;20592;-85
2021/04/11 08:46:26;;;;;;;4.57;3.63;;;14.10;62.30;;;14.84;43.15;94497.13;5052653;28;20653;-84
2021/04/11 08:49:31;;;;;;;4.90;3.40;;;14.30;62.30;;;15.11;43.13;94487.91;5053390;28;20719;-85
2021/04/11 08:52:45;;;;;;;6.03;3.58;;;14.50;62.30;;;15.45;42.85;94496.06;5052858;28;20219;-85
2021/04/11 08:55:51;;;;;;;6.35;3.75;;;14.80;62.40;;;15.76;42.72;94499.31;5036318;28;20203;-83
2021/04/11 08:58:18;;;;;;;7.20;4.10;;;15.00;62.60;;;16.02;42.63;94487.41;5051561;28;20759;-83
2021/04/11 09:01:03;;;;;;;6.82;3.83;;;15.30;62.50;;;16.27;42.38;94489.72;5053169;28;20187;-85
2021/04/11 09:03:56;;;;;;;10.18;4.38;;;15.60;62.30;;;16.54;42.24;94488.31;5052663;28;20214;-83
2021/04/11 09:07:05;;;;;;;7.47;4.00;;;15.70;62.30;;;16.81;42.12;94489.28;5034694;28;20206;-84
2021/04/11 09:10:01;;;;;;;7.50;4.13;;;16.00;61.70;;;17.11;41.82;94487.38;5020325;28;20582;-85
2021/04/11 09:13:01;;;;;;;6.10;3.85;;;16.30;61.80;;;17.42;41.46;94475.34;5051944;28;20231;-84
2021/04/11 09:15:29;;;;;;;10.52;3.67;;;16.60;61.70;;;17.77;41.18;94481.31;5052896;28;20199;-85
2021/04/11 09:18:26;;;;;;;4.65;3.50;;;16.90;62.10;;;18.11;41.15;94486.50;5069528;28;20663;-85
2021/04/11 09:21:15;;;;;;;4.55;3.47;;;17.10;61.40;;;18.38;41.00;94478.56;5053599;28;20192;-85
2021/04/11 09:24:06;;;;;;;6.25;3.80;;;17.50;61.50;;;18.61;40.63;94473.97;5052595;28;20219;-85
2021/04/11 09:27:07;;;;;;;5.93;4.07;;;17.70;61.70;;;18.81;39.93;94477.84;5051552;28;20587;-84
2021/04/11 09:30:08;;;;;;;4.55;3.40;;;18.00;61.10;;;18.99;39.73;94476.66;5052814;28;20277;-84
2021/04/11 09:33:28;;;;;;;5.22;3.45;;;18.20;61.00;;;19.14;39.74;94475.97;5043959;28;20227;-84
2021/04/11 09:36:32;;;;;;;4.43;3.30;;;18.50;60.70;;;19.24;39.51;94472.56;5052512;28;20207;-85
2021/04/11 09:39:25;;;;;;;5.22;3.85;;;18.60;60.10;;;19.28;39.25;94471.81;5035887;28;20307;-85
2021/04/11 09:42:20;;;;;;;4.72;3.40;;;18.80;60.10;;;19.40;39.15;94471.59;5049610;28;20743;-84
2021/04/11 09:45:18;;;;;;;3.95;3.30;;;18.90;59.70;;;19.47;39.04;94461.53;5035445;28;20214;-84
2021/04/11 09:48:06;;;;;;;17.30;11.18;;;19.00;59.90;;;19.59;38.99;94463.19;5052492;28;20211;-84
2021/04/11 09:51:05;;;;;;;36.17;17.85;;;19.10;59.30;;;19.72;38.69;94465.38;5052555;28;20249;-85
2021/04/11 09:53:53;;;;;;;20.58;13.05;;;19.20;59.10;;;19.82;38.33;94462.75;5048832;28;20225;-83
2021/04/11 09:57:12;;;;;;;84.03;45.03;;;19.40;59.00;;;19.93;38.38;94455.63;5050691;28;20195;-84
2021/04/11 10:00:13;;;;;;;78.55;44.92;;;19.40;59.00;;;20.03;38.20;94459.38;5067308;28;20649;-83
2021/04/11 10:03:33;;;;;;;85.40;52.47;;;19.60;58.90;;;20.12;37.62;94457.81;5067886;28;20219;-83
2021/04/11 10:06:52;;;;;;;67.80;46.15;;;19.70;59.30;;;20.17;37.93;94449.81;5051475;28;20175;-83
2021/04/11 10:09:56;;;;;;;34.67;26.35;;;19.70;58.20;;;20.19;37.64;94445.03;5051658;28;20669;-85
2021/04/11 10:12:51;;;;;;;19.08;12.52;;;19.80;57.80;;;20.24;37.38;94445.03;5049736;28;20238;-84
2021/04/11 10:15:54;;;;;;;52.30;31.50;;;19.90;58.30;;;20.28;37.85;94440.78;5015467;28;20196;-83
2021/04/11 10:18:52;;;;;;;83.28;45.40;;;19.90;57.90;;;20.31;37.25;94437.59;5016497;28;20270;-83
2021/04/11 10:21:59;;;;;;;33.53;23.77;;;20.00;57.70;;;20.29;37.28;94442.38;5051259;28;20257;-83
2021/04/11 10:24:45;;;;;;;27.90;21.35;;;20.00;57.50;;;20.27;37.36;94435.72;5051730;28;20188;-83
2021/04/11 10:27:27;;;;;;;13.88;12.02;;;20.00;57.60;;;20.24;37.30;94438.94;5034489;28;20572;-85
2021/04/11 10:29:56;;;;;;;39.72;25.00;;;20.00;57.50;;;20.23;37.28;94434.66;5029583;28;20567;-84
2021/04/11 10:32:46;;;;;;;24.67;18.80;;;20.00;57.40;;;20.19;37.42;94438.91;5050990;28;20259;-83
2021/04/11 10:35:36;;;;;;;10.57;7.07;;;20.00;57.20;;;20.11;37.33;94433.03;5027083;28;20231;-82
2021/04/11 10:38:22;;;;;;;6.65;5.35;;;19.90;56.70;;;20.07;36.74;94437.28;5029765;28;20223;-83
2021/04/11 10:41:18;;;;;;;4.88;3.80;;;19.90;57.00;;;20.03;37.03;94438.91;5014523;28;20207;-84
2021/04/11 10:44:15;;;;;;;10.55;4.10;;;19.80;57.00;;;19.98;36.60;94439.69;5036667;28;20246;-84
2021/04/11 10:47:30;;;;;;;4.50;3.70;;;19.80;56.70;;;19.91;36.73;94439.13;5021838;28;20306;-84
2021/04/11 10:50:11;;;;;;;9.90;3.72;;;19.70;56.60;;;19.86;37.10;94433.78;5047435;28;20196;-82
2021/04/11 10:53:37;;;;;;;5.60;3.90;;;19.70;56.90;;;19.78;37.21;94434.25;5037609;28;20316;-83
2021/04/11 10:56:49;;;;;;;4.55;3.55;;;19.70;57.20;;;19.73;37.35;94427.06;5003346;28;20219;-83
2021/04/11 10:59:43;;;;;;;5.45;3.50;;;19.60;57.10;;;19.70;37.29;94435.56;5028429;28;20207;-83
2021/04/11 11:03:06;;;;;;;5.78;3.30;;;19.60;57.10;;;19.66;36.98;94421.19;5050580;28;20622;-84
2021/04/11 11:05:44;;;;;;;4.55;3.85;;;19.60;56.90;;;19.66;37.40;94429.97;5050619;28;20211;-83
2021/04/11 11:08:23;;;;;;;4.72;3.53;;;19.50;56.70;;;19.67;37.32;94433.41;5050435;28;20692;-82
2021/04/11 11:11:12;;;;;;;7.53;3.90;;;19.50;56.80;;;19.68;37.40;94432.38;5067302;28;20203;-82
2021/04/11 11:14:18;;;;;;;5.15;3.78;;;19.50;56.90;;;19.68;37.12;94421.72;5066462;28;20219;-82
2021/04/11 11:17:08;;;;;;;5.85;3.50;;;19.50;56.60;;;19.69;36.87;94426.00;5050492;28;20214;-81
2021/04/11 11:20:00;;;;;;;5.70;3.55;;;19.50;56.90;;;19.74;36.88;94425.19;5034168;28;20220;-82
2021/04/11 11:22:55;;;;;;;10.57;3.58;;;19.50;56.90;;;19.75;36.48;94422.28;5051429;28;20211;-82
2021/04/11 11:25:59;;;;;;;4.70;3.30;;;19.60;56.70;;;19.80;36.49;94426.81;5052090;28;20199;-82
2021/04/11 11:29:07;;;;;;;7.03;3.83;;;19.60;56.70;;;19.85;36.81;94421.53;5050696;28;20691;-83
2021/04/11 11:31:54;;;;;;;7.57;3.90;;;19.60;56.60;;;19.89;36.23;94414.63;5030560;28;20668;-83
2021/04/11 11:34:30;;;;;;;4.03;3.17;;;19.70;56.30;;;19.96;36.56;94409.06;5030633;28;20188;-82
2021/04/11 11:37:13;;;;;;;5.28;3.35;;;19.70;56.10;;;20.02;36.16;94405.34;5014014;28;20232;-82
2021/04/11 11:39:45;;;;;;;5.00;3.20;;;19.70;55.90;;;20.09;36.11;94407.75;5015509;28;20192;-83
2021/04/11 11:42:27;;;;;;;4.03;3.15;;;19.80;56.20;;;20.18;36.42;94416.81;5001596;28;20238;-84
2021/04/11 11:45:18;;;;;;;4.15;3.40;;;19.90;56.00;;;20.28;36.06;94405.38;5001509;28;20297;-84
2021/04/11 11:47:59;;;;;;;6.38;3.50;;;20.00;56.00;;;20.45;35.76;94402.44;5034135;28;20224;-83
2021/04/11 11:50:56;;;;;;;3.38;2.80;;;20.10;55.60;;;20.58;35.86;94409.09;5019518;28;20638;-83
2021/04/11 11:54:02;;;;;;;4.13;3.40;;;20.30;55.70;;;20.65;35.21;94396.31;5017522;28;20231;-83
2021/04/11 11:56:52;;;;;;;4.40;3.30;;;20.40;55.90;;;20.72;35.45;94396.06;5017527;28;20269;-84
2021/04/11 11:59:37;;;;;;;3.97;3.00;;;20.50;55.50;;;20.80;35.48;94392.88;5033920;28;20584;-84
2021/04/11 12:02:32;;;;;;;6.82;3.20;;;20.60;55.30;;;20.84;35.77;94387.81;5017999;28;20250;-83